86.7F
Current conditions from King Hill
Updated every 5 minutes
 
  Friday July 19, 2019

Observations for Westford

Westford

44° 37' 38"N, 73° 02' 29"W, Elevation 850 ft.
Eastern Time

Hourly observations for the last 72 hours

Date Time Temperature (°F) Humi-
dity

(%)
Wind
(mph)
Pressure Rain (in)
Air Dew 6 Hour 1 Hr 3 Hr 6 Hr Day
Alt
(in)
Sea
Level

(mb)
Max Min
19 14:00 84.6 75.0 85.8 70.1 73 SSW 2 G 15 29.68 1005.0 0.04 0.14 0.14 0.14
19 13:00 85.0 75.8 74 SW 1 G 12 29.69 1005.6 0.10 0.10
19 12:00 83.2 74.9 76 WSW 2 G 11 29.70 1005.8 0.00
19 11:00 80.7 72.8 77 WSW 0 G 14 29.71 1006.3 0.00
19 10:00 77.7 70.7 79 SSW 2 G 13 29.73 1006.6 0.00
19 09:00 74.2 69.4 85 SW 3 G 14 29.74 1007.1 3.30
19 08:00 71.6 67.5 71.6 66.3 87 SSW 2 G 14 29.74 1007.2 0.10 0.34 0.34 3.30
19 07:00 67.8 65.7 93 S 1 G 14 29.76 1007.8 0.24 3.20
19 06:00 66.3 64.5 94 SSW 0 G 7 29.77 1008.0 2.96
19 05:00 66.3 64.2 93 SSW 0 G 5 29.76 1008.0 2.95
19 04:00 66.8 64.4 92 SSW 0 G 6 29.78 1008.4 1.33
19 03:00 67.2 64.2 90 SSW 0 G 10 29.77 1008.3 1.33
19 02:00 67.5 64.5 73.3 65.8 90 SW 0 G 9 29.79 1008.8 0.34
19 01:00 67.0 64.6 92 S 0 G 5 29.79 1008.8 0.01
19 00:00 66.0 64.2 94 S 0 G 6 29.80 1009.1 3.45
18 23:00 66.5 64.7 94 Calm 29.81 1009.6 6.46
18 22:00 66.3 64.5 94 Calm 29.82 1009.9 4.34
18 21:00 67.8 65.1 91 Calm 29.82 1009.8 2.89
18 20:00 73.3 68.2 82.7 73.3 84 Calm 29.82 1009.8 2.66
18 19:00 74.7 68.8 82 Calm 29.83 1010.2 2.40
18 18:00 79.9 68.0 67 Calm 29.85 1010.7 0.00
18 17:00 81.2 68.8 66 SSW 0 G 1 29.86 1011.2 0.00
18 16:00 81.2 70.1 69 SSE 0 G 1 29.87 1011.6 0.00
18 15:00 81.1 68.2 65 Calm 29.87 1011.4 0.00
18 14:00 79.3 69.5 79.8 61.2 72 NW 0 G 7 29.89 1012.1 0.00
18 13:00 77.4 66.4 69 W 2 G 10 29.90 1012.7 0.00
18 12:00 78.0 64.9 64 Calm 29.93 1013.6 0.00
18 11:00 77.2 64.1 64 Calm 29.93 1013.7 0.00
18 10:00 73.5 64.3 73 Calm 29.94 1013.8 0.00
18 09:00 68.7 63.0 82 Calm 29.94 1014.0 0.00
18 08:00 61.2 60.3 61.3 54.8 97 Calm 29.95 1014.2 0.00
18 07:00 56.9 56.1 97 Calm 29.95 1014.4 0.00
18 06:00 55.6 54.5 96 Calm 29.93 1013.7 0.00
18 05:00 55.2 54.1 96 Calm 29.91 1013.0 0.00
18 04:00 55.8 54.7 96 Calm 29.89 1012.1 0.00
18 03:00 57.8 56.7 96 Calm 29.89 1012.2 0.00
18 02:00 58.4 57.3 72.7 58.3 96 Calm 29.91 1012.8 0.00
18 01:00 59.9 58.8 96 Calm 29.91 1012.9 0.00
18 00:00 62.3 61.1 96 Calm 29.90 1012.4 1.85
17 23:00 63.2 61.7 95 Calm 29.88 1012.0 1.86
17 22:00 65.3 63.5 94 Calm 29.87 1011.6 1.86
17 21:00 67.4 65.0 92 Calm 29.85 1010.9 1.86
17 20:00 72.7 70.9 77.8 68.7 94 Calm 29.83 1010.1 1.29 1.86
17 19:00 72.9 71.4 95 Calm 29.80 1009.3 1.86
17 18:00 72.3 70.8 95 Calm 29.81 1009.4 1.86
17 17:00 71.1 69.6 95 Calm 29.80 1009.3 0.08 1.29 1.86
17 16:00 68.8 66.7 93 ENE 0 G 7 29.80 1009.0 1.21 1.78
17 15:00 77.2 73.0 87 SSW 0 G 2 29.79 1008.9 0.56
17 14:00 76.9 74.1 80.2 69.3 91 SSW 1 G 6 29.80 1009.2 0.02 0.02 0.06 0.56
17 13:00 77.5 72.3 84 W 0 G 8 29.80 1009.2 0.54
17 12:00 78.4 74.2 87 SSW 0 G 9 29.81 1009.6 0.54
17 11:00 73.0 71.2 94 SW 0 G 6 29.82 1010.0 0.04 0.54
17 10:00 71.0 69.5 95 S 0 G 10 29.83 1010.3 0.01 0.54
17 09:00 70.1 68.6 95 SW 0 G 7 29.83 1010.1 0.03 0.53
17 08:00 69.3 67.8 74.6 68.6 95 SSW 0 G 8 29.83 1010.0 0.06 0.50 0.50 0.50
17 07:00 68.6 66.8 94 SW 1 G 11 29.82 1009.8 0.40 0.44
17 06:00 68.9 66.8 93 Calm 29.80 1009.2 0.04 0.04
17 05:00 70.5 66.8 88 SW 3 G 13 29.81 1009.4 0.00
17 04:00 70.4 66.3 87 Calm 29.80 1009.1 0.00
17 03:00 72.1 66.3 82 W 0 G 6 29.81 1009.5 0.00
17 02:00 74.3 66.3 75.3 72.2 76 W 0 G 11 29.82 1009.9 0.00
17 01:00 75.1 65.9 73 WSW 0 G 6 29.83 1010.3 0.00
17 00:00 72.2 66.1 81 Calm 29.83 1010.2 0.00
16 23:00 73.5 65.9 77 SW 0 G 5 29.84 1010.6 0.00
16 22:00 72.9 66.7 81 SSW 0 G 8 29.84 1010.6 0.00
16 21:00 74.2 66.9 78 Calm 29.83 1010.3 0.00
16 20:00 75.3 67.2 80.0 71.9 76 Calm 29.83 1010.2 0.00
16 19:00 78.6 68.0 70 SW 1 G 9 29.83 1010.1 0.00
16 18:00 78.9 68.7 71 SSW 1 G 13 29.83 1010.3 0.00
16 17:00 78.0 67.0 69 SSW 1 G 14 29.85 1010.7 0.00
16 16:00 75.5 65.0 70 SSW 1 G 13 29.86 1011.3 0.00
16 15:00 76.8 65.5 68 SSW 4 G 13 29.89 1012.2 0.00

Data generated by WxSolution Version 1.9.1.7, Build 2018.11.24.


 
 
Current Radar Loop:

Copyright © WestfordWeather.net 2007-2019. All rights reserved.